Date,TemperatureHighF,TemperatureAvgF,TemperatureLowF,DewpointHighF,DewpointAvgF,DewpointLowF,HumidityHigh,HumidityAvg,HumidityLow,PressureMaxIn,PressureMinIn,WindSpeedMaxMPH,WindSpeedAvgMPH,GustSpeedMaxMPH,PrecipitationSumIn
2013-1-1,75.0,67.9,63.5,65.6,61.8,57.9,90,81,71,29.97,29.87,31,13,31,0.00
2013-1-2,77.7,68.9,63.3,64.8,60.7,57.2,86,76,59,29.97,29.17,30,14,30,0.00
2013-1-3,74.7,67.7,63.0,65.2,61.8,57.4,91,82,66,30.00,29.89,30,12,30,0.00
2013-1-4,78.6,69.0,63.9,65.6,60.8,56.4,90,76,49,30.01,29.90,31,14,31,0.00
2013-1-5,75.6,68.3,63.3,63.4,60.2,55.5,85,76,63,30.01,29.89,34,15,34,0.00
2013-1-6,76.8,68.8,63.5,63.4,60.7,56.9,87,76,60,29.98,29.86,34,14,34,0.00
2013-1-7,73.8,66.7,61.9,63.6,60.7,54.5,85,81,65,30.01,29.88,34,13,34,0.00
2013-1-8,77.2,69.3,63.5,64.3,60.9,56.5,86,75,61,30.00,29.90,33,14,33,0.00
2013-1-9,78.6,69.9,61.5,66.6,61.7,56.3,91,76,56,30.04,29.95,30,12,30,0.00
2013-1-10,77.9,69.3,65.5,64.5,61.6,56.9,86,77,61,30.06,29.97,36,15,36,0.00
2013-1-11,79.0,69.7,64.0,65.5,62.5,59.3,90,78,59,30.04,29.93,34,16,34,0.00
2013-1-12,74.3,66.6,63.7,62.8,60.5,57.9,87,81,66,30.02,29.91,30,13,30,0.00
2013-1-13,78.8,68.5,61.2,63.0,58.9,53.5,88,73,50,29.97,29.88,29,11,29,0.00
2013-1-14,76.5,68.4,62.8,64.0,61.0,57.4,88,78,61,29.98,29.90,30,11,30,0.00
2013-1-15,78.3,68.3,61.7,63.9,59.4,54.4,85,74,55,29.98,29.87,25,13,25,0.00
2013-1-16,79.0,68.3,61.2,64.5,59.3,52.3,90,73,53,29.99,29.88,27,11,27,0.00
2013-1-17,72.9,66.7,63.5,63.7,61.0,59.0,87,82,69,30.02,29.90,30,14,30,0.00
2013-1-18,74.5,66.8,63.7,63.7,60.2,56.4,90,80,68,30.04,29.92,36,15,36,0.00
2013-1-19,70.5,66.5,62.6,62.1,59.8,58.3,91,79,68,30.03,29.92,35,14,35,0.00
2013-1-20,73.9,67.1,62.6,63.9,60.9,58.6,92,81,69,30.02,29.89,33,16,33,0.00
2013-1-21,75.0,67.2,62.6,63.0,59.4,55.3,84,76,62,30.09,29.89,32,14,32,0.00
2013-1-26,64.8,64.6,64.4,60.0,59.5,58.6,85,84,82,29.92,29.91,24,13,24,0.94
2013-1-27,76.1,67.3,63.0,63.6,59.6,57.6,86,77,62,29.94,29.86,34,16,34,0.00
2013-1-28,77.0,68.7,63.0,64.3,60.5,55.5,88,75,59,29.96,29.85,34,15,34,0.00
2013-1-29,72.7,67.2,62.4,64.8,62.3,57.6,95,84,73,29.93,29.83,32,14,32,0.00
2013-1-30,78.8,69.4,64.2,66.0,63.0,59.3,96,81,60,29.89,29.78,30,14,30,0.00
2013-1-31,72.7,67.0,64.8,63.8,61.8,59.7,96,83,70,29.95,29.81,32,13,32,1.94
2013-2-1,73.4,66.1,62.2,60.5,58.5,56.2,87,77,61,29.96,29.89,21,11,21,0.00
2013-2-6,77.7,69.5,63.9,63.6,61.8,57.9,88,77,53,29.94,29.85,28,15,28,1.14
2013-2-7,78.3,68.7,61.7,62.8,59.4,56.2,88,73,54,29.94,29.84,30,14,30,0.00
2013-2-8,77.0,67.8,59.7,63.0,59.4,54.9,88,75,57,29.95,29.85,34,13,34,0.00
2013-2-9,76.8,68.1,59.4,62.5,59.3,54.2,87,74,55,29.96,29.87,34,16,34,0.00
2013-2-10,78.3,67.8,60.8,61.8,58.4,54.3,86,73,51,29.98,29.88,32,13,32,0.00
2013-2-11,77.7,66.8,57.6,63.7,57.8,51.8,87,74,47,29.97,29.86,33,12,33,0.00
2013-2-12,74.5,66.9,58.6,63.2,58.2,49.0,89,74,49,29.95,29.87,31,11,31,0.00
2013-2-13,80.2,69.4,62.4,64.4,61.7,58.4,94,78,54,29.93,29.10,27,12,27,0.00
2013-2-14,78.3,68.9,62.8,63.9,61.6,58.6,93,78,58,29.95,29.84,26,10,26,0.00
2013-2-15,82.2,72.7,64.8,64.2,58.0,40.0,89,63,25,29.93,29.81,27,13,27,1.61
2013-2-16,79.9,69.4,63.0,63.3,58.4,38.4,89,71,23,29.98,29.84,34,12,34,0.00
2013-2-17,76.3,68.0,63.1,61.1,58.5,54.8,86,72,54,29.99,29.86,34,15,34,0.00
2013-2-18,75.6,66.6,63.1,62.9,59.9,55.6,88,79,64,30.01,29.87,33,14,33,0.79
2013-2-19,74.8,66.8,61.5,63.6,60.2,55.1,88,79,66,30.01,29.91,30,16,30,0.00
2013-2-20,78.6,68.8,62.1,65.0,60.3,54.8,86,75,53,29.99,29.87,32,16,32,0.00
2013-2-21,73.9,68.1,62.4,65.4,62.0,57.4,90,81,67,29.99,29.89,30,13,30,0.00
2013-2-22,76.8,67.9,60.4,66.2,61.5,55.9,96,80,64,30.03,25.88,31,14,31,0.00
2013-2-23,78.8,69.8,61.3,65.7,62.7,57.4,90,79,62,25.94,25.64,77,13,77,0.00
2013-2-24,78.1,70.2,65.5,66.1,64.1,61.2,93,81,64,30.00,29.80,28,13,28,0.00
2013-2-25,80.4,70.0,65.5,66.7,64.5,60.5,94,83,62,29.95,29.78,25,10,25,0.01
2013-2-26,79.9,71.5,61.7,67.3,64.2,59.9,95,79,60,29.98,28.40,31,11,31,0.00
2013-2-27,75.0,68.8,63.7,66.0,63.6,60.2,95,84,72,30.01,29.84,30,13,30,0.00
2013-2-28,76.8,68.4,63.3,65.3,61.8,58.8,93,80,63,30.01,29.88,30,13,30,0.00
2013-3-1,73.9,67.7,64.2,66.3,64.0,62.1,96,88,75,29.99,29.87,23,9,23,0.45
2013-3-2,79.9,66.8,63.0,63.1,60.7,57.8,95,81,54,30.05,29.92,33,12,33,0.06
2013-3-3,64.0,60.9,59.0,60.3,57.5,55.0,91,89,80,30.17,30.01,47,24,47,0.02
2013-3-4,68.4,63.7,59.0,61.7,59.0,55.4,88,84,78,30.16,29.95,27,16,29,0.00
2013-3-5,76.3,69.2,64.8,65.8,63.6,61.7,91,83,68,30.07,29.86,22,12,27,0.00
2013-3-6,73.9,69.1,65.3,66.6,64.8,63.9,96,86,78,30.05,29.92,19,11,23,0.00
2013-3-7,72.5,69.7,67.5,64.6,63.6,62.8,87,81,76,30.04,29.91,27,13,30,0.00
2013-3-8,73.2,70.5,68.0,64.9,63.9,62.6,85,80,74,30.03,29.88,31,15,31,0.00
2013-3-9,68.7,67.4,65.7,64.8,64.2,-4.4,95,89,85,30.02,29.89,21,11,21,0.00
2013-3-10,80.4,69.3,64.2,66.0,63.6,-4.4,95,83,61,30.02,29.78,30,14,30,0.00
2013-3-11,80.8,70.8,37.8,66.6,63.1,-4.4,94,78,16,30.00,29.77,30,14,30,0.00
2013-3-12,78.8,70.8,65.1,66.9,64.1,-4.4,91,80,63,30.00,29.80,31,14,31,0.00
2013-3-13,72.9,67.5,64.0,64.0,61.8,-4.4,89,82,72,30.07,29.88,34,13,34,0.00
2013-3-14,74.1,66.1,62.8,62.1,59.1,-4.4,88,78,63,30.08,29.92,39,12,39,0.00
2013-3-15,72.0,65.7,37.8,62.8,58.2,-4.4,88,77,16,30.08,29.84,33,14,33,0.00
2013-3-16,77.7,68.7,61.9,63.1,58.6,-4.4,86,71,57,30.07,29.72,32,16,32,0.00
2013-3-17,83.5,70.5,62.6,66.0,61.5,56.3,95,75,45,30.09,29.68,26,13,27,0.00
2013-3-18,84.6,72.9,62.4,66.6,62.9,11.5,91,73,46,30.05,23.44,25,10,25,0.00
2013-3-19,82.8,73.0,63.7,66.9,63.7,11.5,89,74,52,30.04,29.71,26,11,30,0.00
2013-3-20,90.0,73.9,62.4,67.1,62.2,11.5,88,70,35,30.03,29.64,23,7,23,0.00
2013-3-21,90.9,73.7,65.5,66.9,61.4,11.5,93,71,12,30.26,29.63,25,7,25,0.25
2013-3-22,88.3,73.4,61.3,66.9,60.5,43.7,89,68,25,30.26,30.17,20,8,21,0.01
2013-3-23,86.7,74.2,61.2,67.8,60.3,19.6,90,67,24,30.27,29.94,23,7,23,0.00
2013-3-24,87.3,71.0,62.4,68.4,62.3,59.0,92,77,45,29.98,29.75,17,4,17,0.00
2013-3-25,92.7,74.5,65.7,67.5,62.7,55.0,93,71,32,29.94,29.66,23,6,23,0.00
2013-3-26,79.3,71.2,65.5,64.8,62.4,58.1,86,74,60,30.00,29.74,35,15,37,0.00
2013-3-27,77.5,69.3,64.9,61.7,59.6,56.5,85,72,54,30.03,29.80,39,16,44,0.00
2013-3-28,77.4,68.4,64.4,63.9,61.0,58.5,86,78,63,30.05,29.88,30,14,36,0.00
2013-3-29,72.9,67.3,63.9,63.0,58.9,52.6,86,75,63,30.08,29.88,30,14,32,0.00
2013-3-30,80.1,68.9,61.5,64.9,60.2,51.7,96,75,54,30.09,29.81,34,14,36,0.00
2013-3-31,79.2,71.5,65.5,68.0,65.5,62.4,97,82,67,29.97,29.77,32,13,32,0.00
2013-4-1,80.1,71.2,65.8,69.8,66.2,61.9,94,85,67,29.99,29.76,28,12,28,0.21
2013-4-2,78.8,70.6,67.1,66.7,64.9,63.0,94,83,64,29.98,29.77,30,11,30,0.25
2013-4-3,82.2,71.3,65.7,67.1,64.3,61.2,94,80,56,30.00,29.73,27,10,27,0.00
2013-4-4,83.5,73.2,66.6,67.1,64.8,60.6,88,76,53,29.99,29.71,24,9,24,0.00
2013-4-5,81.1,71.5,68.2,68.9,65.0,60.6,91,81,61,30.02,29.78,27,12,27,0.06
2013-4-6,80.8,71.1,64.9,65.3,62.6,60.1,88,76,54,30.00,29.23,30,13,30,0.00
2013-4-7,80.1,69.8,64.4,64.6,61.7,58.3,88,76,54,30.01,29.71,24,12,27,0.00
2013-4-8,88.7,71.7,64.6,66.4,61.9,56.5,90,73,37,29.96,29.70,28,13,28,0.00
2013-4-9,78.3,70.9,66.4,68.0,65.4,62.8,96,83,70,29.93,29.73,24,12,29,0.00
2013-4-10,81.3,71.9,66.2,66.9,64.3,61.5,96,78,57,29.92,27.60,27,12,28,0.00
2013-4-11,87.3,73.7,66.2,68.2,64.4,61.3,88,74,45,29.87,29.64,30,9,30,0.00
2013-4-12,84.4,73.4,65.5,66.6,64.2,60.4,88,74,48,29.87,29.61,27,12,30,0.00
2013-4-13,81.9,71.8,63.7,67.6,64.2,58.6,94,78,58,29.90,29.62,26,12,29,0.00
2013-4-14,83.5,71.8,66.7,68.7,65.8,63.7,93,82,57,29.91,29.66,23,10,24,0.04
2013-4-15,86.7,74.5,66.4,68.2,65.8,62.1,93,76,47,29.95,29.64,23,10,26,0.01
2013-4-16,82.4,74.0,68.7,67.5,65.7,64.2,92,76,59,29.95,29.69,31,14,34,0.00
2013-4-17,80.8,72.3,68.0,66.7,64.0,60.8,86,76,56,29.94,29.73,29,13,31,0.00
2013-4-18,79.5,70.9,66.4,67.8,64.7,62.4,93,81,57,29.94,29.70,26,11,29,0.00
2013-4-19,80.8,69.2,65.7,65.3,63.4,62.2,90,82,58,29.93,29.75,22,8,22,0.00
2013-4-20,77.2,71.4,67.8,64.8,63.7,62.1,84,77,63,29.91,29.79,11,9,18,0.13
2013-4-26,73.4,72.4,71.4,63.2,62.5,61.5,74,71,67,29.86,29.85,21,13,21,0.02
2013-4-27,79.2,70.7,63.9,64.9,61.2,56.1,87,73,55,29.89,29.80,28,13,28,0.00
2013-4-28,81.9,72.5,64.8,63.9,60.7,55.8,81,67,46,29.86,29.75,24,12,24,0.00
2013-4-29,87.1,75.0,63.7,68.3,63.6,56.7,96,70,40,29.83,29.74,24,11,24,0.09
2013-4-30,88.9,75.9,66.2,68.8,65.4,57.2,93,73,40,29.84,29.75,22,7,22,0.11
2013-5-1,90.9,79.2,65.7,70.5,65.6,60.9,92,66,39,29.89,29.77,23,7,23,0.00
2013-5-2,91.8,78.2,66.4,70.0,67.7,64.0,100,72,42,29.85,29.77,25,8,25,0.04
2013-5-3,71.4,69.7,69.1,68.0,66.3,64.4,93,89,83,29.98,29.92,17,7,17,0.05
2013-5-4,79.9,70.0,64.9,64.8,60.9,56.8,88,73,52,29.99,29.90,34,11,34,0.00
2013-5-5,83.3,72.5,63.0,68.5,63.9,55.2,96,77,47,30.05,29.92,31,11,31,0.15
2013-5-6,85.8,76.1,65.3,66.5,62.7,59.8,100,65,46,30.04,29.93,28,13,28,0.00
2013-5-7,81.9,73.7,61.2,63.2,58.8,49.9,85,62,41,30.04,29.94,27,14,27,0.00
2013-5-8,82.2,74.3,58.8,64.4,57.5,35.9,85,60,23,30.05,29.94,27,14,29,0.00
2013-5-9,85.8,74.4,63.9,67.1,64.1,58.9,90,73,45,30.05,29.96,23,9,23,0.00
2013-5-10,76.5,70.7,66.2,70.1,67.0,63.5,100,88,68,30.03,29.91,21,7,21,0.41
2013-5-11,81.9,71.4,65.5,70.3,67.3,62.9,99,81,57,29.99,29.68,23,8,23,0.61
2013-5-12,76.1,70.2,67.1,68.5,65.9,64.4,93,86,73,29.96,29.73,23,8,23,0.04
2013-5-13,77.5,70.0,66.9,66.6,64.4,61.5,93,83,65,29.92,29.76,34,13,34,0.00
2013-5-14,74.7,69.3,66.0,64.9,62.5,60.1,89,79,64,29.95,29.78,33,14,33,0.00
2013-5-15,79.0,69.2,65.7,66.9,61.6,59.2,88,77,57,29.93,29.77,32,14,36,0.00
2013-5-16,79.2,70.2,64.2,65.8,61.6,55.8,87,75,58,29.94,29.76,32,12,32,0.00
2013-5-17,80.6,69.6,65.1,66.2,63.0,60.4,88,80,57,29.90,29.80,27,11,27,0.00
2013-5-18,82.4,71.5,66.2,67.6,64.2,62.2,89,78,55,29.87,29.69,27,11,27,0.00
2013-5-19,82.4,71.8,66.6,68.0,65.4,62.2,92,81,57,29.85,29.68,28,10,28,0.12
2013-5-20,82.9,71.9,66.4,68.7,65.8,63.0,97,82,57,29.85,29.69,23,8,23,0.01
2013-5-21,84.2,71.3,65.8,70.9,66.5,64.2,99,86,54,29.80,29.65,22,6,22,0.11
2013-5-22,84.7,70.1,64.4,69.8,66.3,63.9,99,89,55,29.86,29.69,14,3,14,0.61
2013-5-23,79.0,70.4,64.0,68.5,66.1,63.0,99,87,65,29.84,29.70,27,6,27,0.01
2013-5-24,85.8,71.2,66.9,70.3,66.8,63.0,99,88,48,29.85,29.71,15,4,15,0.40
2013-5-25,80.2,70.3,65.7,67.6,65.6,63.9,95,86,64,29.89,29.73,22,8,22,0.13
2013-5-26,83.8,73.0,66.9,70.3,65.7,62.6,93,79,55,29.85,29.69,21,9,21,0.00
2013-5-27,87.3,72.6,65.7,68.9,65.9,62.4,96,80,48,29.85,29.67,24,8,24,0.00
2013-5-28,85.1,71.4,65.3,70.0,65.7,62.6,99,84,51,29.86,29.65,27,7,27,0.70
2013-5-29,89.2,70.5,64.0,70.2,66.1,63.1,99,88,45,29.85,29.68,18,4,18,0.96
2013-5-30,82.2,68.7,64.0,70.2,65.8,63.1,99,91,59,29.86,29.71,13,4,13,1.15
2013-5-31,90.5,71.4,64.6,69.8,66.6,63.5,99,87,43,29.85,29.68,21,6,21,0.14
2013-6-1,81.7,68.5,64.9,69.6,66.1,64.0,99,93,62,29.84,29.73,24,4,24,1.41
2013-6-2,89.4,73.2,61.5,70.3,65.9,61.0,99,80,45,29.87,29.63,23,5,23,0.00
2013-6-3,91.8,74.1,64.9,70.9,67.3,62.6,97,82,44,29.80,29.64,18,5,18,0.22
2013-6-4,93.0,72.9,66.0,70.3,66.2,62.8,98,82,39,29.84,29.65,22,5,22,0.48
2013-6-5,84.9,71.4,62.6,70.7,66.1,61.7,99,85,50,29.83,29.65,18,5,18,0.06
2013-6-6,85.6,71.0,63.3,68.9,65.6,62.1,99,85,53,29.80,29.61,23,6,23,1.68
2013-6-7,81.9,72.3,64.8,69.3,65.7,62.8,97,81,62,29.83,29.63,20,7,20,0.02
2013-6-8,77.0,70.0,65.3,67.1,64.1,61.3,92,82,69,29.83,29.69,21,7,21,0.01
2013-6-9,80.6,71.5,63.9,67.8,64.4,59.9,89,79,59,29.84,29.65,23,8,23,0.00
2013-6-10,77.9,69.8,65.8,68.7,64.8,61.0,99,84,66,29.83,29.70,27,7,27,1.41
2013-6-11,79.7,71.4,61.9,67.6,63.7,59.7,93,77,57,29.87,29.68,23,9,23,0.02
2013-6-12,77.2,70.7,66.2,67.6,65.4,63.1,93,83,70,29.87,29.75,19,7,19,0.00
2013-6-13,82.4,70.8,66.4,69.1,65.9,62.2,99,85,53,29.82,29.68,17,4,17,0.69
2013-6-14,81.7,70.9,64.4,68.7,65.7,62.4,98,85,56,29.81,29.63,23,7,23,0.17
2013-6-15,78.4,71.6,67.1,70.2,66.4,63.1,97,84,67,29.81,29.67,23,6,23,0.24
2013-6-16,84.6,72.1,64.9,71.6,65.6,60.8,97,81,51,29.80,29.60,21,5,21,0.38
2013-6-17,86.2,72.8,68.4,70.0,66.8,63.9,95,82,49,29.78,29.61,23,7,23,0.24
2013-6-18,80.1,71.4,65.8,71.6,66.6,64.6,99,85,64,29.83,29.60,22,6,22,0.96
2013-6-19,81.3,71.0,65.5,69.6,66.6,63.5,99,86,62,29.78,29.61,23,6,23,0.60
2013-6-20,77.2,69.6,63.7,69.3,66.1,62.8,99,89,71,29.81,29.67,21,5,21,0.46
2013-6-21,81.0,70.6,66.7,66.7,65.0,61.7,96,83,55,29.82,29.68,24,8,24,0.12
2013-6-22,76.8,70.6,65.5,67.5,64.7,59.5,91,82,69,29.82,29.68,29,10,29,0.00
2013-6-23,76.1,69.5,65.1,66.4,63.6,61.3,92,82,66,29.81,29.70,26,11,30,0.06
2013-6-24,84.6,69.8,65.7,67.3,64.1,61.3,94,82,55,29.86,29.69,26,8,27,0.37
2013-6-25,76.6,69.1,65.5,67.6,64.1,59.9,94,84,71,29.86,29.75,70,9,70,0.26
2013-6-26,77.2,70.6,64.4,68.7,65.0,60.1,93,83,70,29.85,29.68,29,10,29,0.26
2013-6-27,74.1,69.2,66.6,66.7,65.4,64.0,94,88,76,29.83,29.71,30,8,30,0.00
2013-6-28,77.5,69.5,64.6,66.4,64.0,60.6,99,84,58,29.81,29.68,19,7,19,0.00
2013-6-29,82.8,69.0,63.0,66.0,63.3,60.8,99,84,52,29.87,29.63,22,5,22,0.83
2013-6-30,82.4,69.9,63.0,68.9,64.6,60.4,99,85,49,29.83,29.58,23,5,23,0.25
2013-7-1,81.0,69.2,64.8,67.3,65.5,62.1,99,89,55,29.81,29.70,17,3,17,0.44
2013-7-2,82.6,70.4,63.7,68.9,65.0,61.2,98,84,53,29.83,29.69,17,5,51,0.00
2013-7-3,82.8,71.8,66.2,69.6,65.6,61.3,99,82,51,29.82,29.64,21,6,21,0.00
2013-7-4,81.3,70.1,63.9,68.9,65.7,63.0,99,87,59,29.81,29.62,28,7,28,0.92
2013-7-5,80.2,71.2,63.1,67.5,64.0,61.0,97,79,58,29.81,29.60,28,9,28,0.01
2013-7-6,84.0,70.7,65.1,67.8,64.0,60.6,98,80,49,29.77,29.58,26,8,29,0.18
2013-7-7,76.3,69.1,65.3,66.0,64.5,62.6,95,86,69,29.78,29.63,27,9,27,0.00
2013-7-8,79.0,69.6,65.1,66.9,63.9,61.9,90,82,64,29.83,29.70,28,9,28,0.00
2013-7-9,78.3,71.7,65.1,67.5,65.2,62.6,93,80,66,29.81,29.66,28,11,28,0.00
2013-7-10,82.0,72.3,68.0,67.6,65.5,63.5,95,80,58,29.77,29.60,25,8,25,0.13
2013-7-11,73.0,68.1,63.5,66.7,65.1,62.1,99,90,77,29.77,29.66,28,5,28,0.00
2013-7-12,82.0,70.0,65.7,68.7,65.4,62.6,98,86,61,29.79,29.65,28,5,28,0.32
2013-7-13,140.0,70.5,62.1,69.6,64.2,60.4,99,82,58,30.23,29.60,28,8,28,3.32
2013-7-14,80.4,70.7,63.9,67.3,63.5,59.0,89,79,60,30.22,29.53,26,11,26,0.00
2013-7-15,81.0,70.6,65.1,66.7,63.6,60.6,90,79,60,29.75,29.56,30,12,30,0.00
2013-7-16,79.2,70.5,65.5,67.3,63.9,60.6,88,80,62,29.77,29.59,27,10,27,0.00
2013-7-17,78.8,70.5,65.3,68.7,65.6,59.7,99,85,63,29.77,29.60,34,8,34,0.34
2013-7-18,79.2,71.5,66.0,68.7,66.5,64.9,99,85,66,29.76,29.63,22,7,22,0.01
2013-7-19,72.3,68.9,66.2,67.5,65.7,64.4,99,90,80,29.78,29.65,30,8,30,0.04
2013-7-20,79.9,71.7,67.5,71.2,65.4,62.2,92,81,57,29.74,29.57,29,9,29,0.00
2013-7-21,80.4,70.5,64.9,66.9,65.5,63.3,99,85,58,29.78,29.60,29,7,29,0.78
2013-7-22,77.7,69.1,65.1,67.1,64.9,62.8,99,87,66,29.79,29.67,25,8,25,0.07
2013-7-23,80.4,70.5,65.5,67.8,65.5,62.8,94,85,62,29.80,29.62,28,11,28,0.00
2013-7-24,77.9,70.4,64.6,68.5,66.0,63.3,97,86,72,29.72,29.58,29,7,29,0.00
2013-7-25,80.6,72.0,66.9,70.5,67.2,64.4,94,85,64,29.75,29.58,23,7,23,0.02
2013-7-26,80.4,71.8,68.2,66.9,64.3,57.4,92,78,49,29.79,29.64,34,12,34,0.00
2013-7-27,75.4,69.3,65.3,65.3,63.0,58.6,97,81,58,29.78,29.66,31,9,31,0.31
2013-7-28,77.5,68.9,64.8,68.5,65.8,64.2,99,91,68,29.78,29.59,22,7,22,1.58
2013-7-29,75.9,69.5,66.2,67.1,64.6,57.9,99,85,55,29.83,29.68,23,8,29,0.00
2013-7-30,75.6,69.1,64.6,67.1,64.3,61.9,93,85,72,29.84,29.71,25,8,25,0.22
2013-7-31,79.5,69.0,64.9,66.6,64.2,62.1,95,85,63,29.83,29.66,26,8,26,0.01
2013-8-1,77.5,68.5,64.0,66.4,63.9,61.0,96,86,68,29.78,29.66,23,7,23,0.39
2013-8-2,77.2,68.5,64.8,66.6,64.4,61.5,98,87,67,29.78,29.63,29,10,29,0.26
2013-8-3,79.9,70.0,66.7,68.0,66.1,63.9,98,88,65,29.79,29.59,27,9,27,0.48
2013-8-4,79.0,69.8,66.2,66.4,63.9,58.6,95,83,53,29.78,29.58,25,9,25,0.06
2013-8-5,81.1,70.9,65.1,67.8,65.0,58.6,95,82,48,29.77,29.58,27,10,28,0.04
2013-8-6,79.7,72.0,68.0,66.4,64.4,60.4,90,77,61,29.74,29.59,28,12,28,0.00
2013-8-7,79.9,71.0,66.2,66.2,62.9,59.5,87,76,58,29.75,29.57,31,13,31,0.00
2013-8-8,79.7,69.6,63.0,66.6,63.0,57.7,95,80,59,29.73,29.55,31,9,31,0.01
2013-8-9,79.0,68.9,62.4,67.1,63.9,60.1,99,85,61,29.74,29.60,24,6,27,0.12
2013-8-10,77.4,69.7,65.5,66.2,63.7,61.7,95,82,66,29.74,29.60,30,10,30,0.00
2013-8-11,82.4,70.1,62.6,69.4,64.9,59.9,99,85,49,29.76,29.51,26,4,26,0.31
2013-8-12,81.9,70.5,65.3,70.7,66.0,61.5,99,87,52,29.68,29.51,23,5,23,0.21
2013-8-13,81.5,71.1,64.2,69.4,66.3,63.1,99,86,55,29.70,29.49,21,5,21,0.02
2013-8-14,82.8,72.7,65.1,72.0,67.1,63.7,96,83,61,29.66,29.49,20,5,185,0.01
2013-8-15,83.7,72.9,66.7,71.6,67.0,64.0,99,83,55,29.67,29.44,22,7,22,0.00
2013-8-16,81.1,71.1,65.3,70.0,65.8,63.1,99,85,57,29.72,29.49,34,6,34,1.13
2013-8-17,78.3,69.9,65.5,69.3,65.4,63.0,99,86,64,29.76,29.61,21,5,21,0.01
2013-8-18,80.4,70.4,65.3,69.1,65.8,62.2,99,86,63,29.76,29.52,25,6,25,0.60
2013-8-19,81.1,70.9,64.6,68.2,64.9,62.1,98,82,60,29.70,29.49,28,8,28,0.50
2013-8-20,81.1,70.7,64.0,67.1,64.3,61.7,94,81,61,29.70,29.49,31,9,31,0.00
2013-8-21,79.7,70.0,66.6,68.7,65.0,62.6,95,85,62,29.72,29.56,23,6,23,0.28
2013-8-22,78.3,69.7,64.0,70.0,66.0,63.1,99,89,69,29.68,29.49,21,6,21,0.72
2013-8-23,83.8,68.9,62.6,68.9,64.9,61.7,99,88,54,29.70,29.46,19,3,19,1.03
2013-8-24,81.9,69.1,64.4,69.1,64.6,59.2,99,87,57,29.76,29.53,20,5,20,0.90
2013-8-25,74.3,68.6,63.5,67.3,64.7,62.6,99,88,73,29.76,29.59,20,7,20,0.01
2013-8-26,82.8,71.3,64.2,68.4,64.0,56.1,99,79,44,29.75,29.53,26,6,26,0.00
2013-8-27,83.1,69.0,62.8,69.3,64.9,59.9,99,88,47,29.72,29.52,17,5,17,0.67
2013-8-28,79.2,69.7,63.5,67.8,65.0,62.2,99,86,65,29.72,29.55,21,8,21,0.01
2013-8-29,78.3,70.4,65.1,70.2,65.1,62.4,96,84,59,29.72,29.57,29,8,29,0.00
2013-8-30,81.0,70.7,64.4,70.3,65.5,61.3,99,85,55,29.73,29.55,22,6,22,0.00
2013-8-31,81.0,68.6,63.7,67.1,65.1,62.2,99,90,55,29.74,29.53,23,4,24,0.14
2013-9-1,81.3,69.6,63.7,66.7,64.2,61.2,99,85,57,29.70,29.48,27,6,28,0.11
2013-9-2,78.1,69.1,63.7,68.5,64.3,60.3,99,86,64,29.74,29.55,16,5,17,1.10
2013-9-3,82.9,69.5,63.3,69.6,64.3,61.3,99,85,53,29.75,29.52,35,5,35,0.38
2013-9-4,79.9,70.4,63.3,70.3,65.3,60.8,97,85,62,29.74,29.50,17,5,17,0.33
2013-9-5,81.5,70.6,63.9,69.4,65.8,61.5,99,86,57,29.75,29.51,17,4,17,0.06
2013-9-6,84.4,70.1,64.4,70.5,65.3,60.1,99,87,52,29.69,29.41,23,5,23,0.58
2013-9-7,77.7,68.9,63.3,69.4,65.2,62.2,99,89,65,29.72,29.53,17,3,17,0.01
2013-9-8,81.5,70.6,62.6,70.5,66.3,61.7,99,88,58,29.78,29.45,21,4,21,0.00
2013-9-9,84.2,69.3,63.1,70.0,65.4,18.5,99,89,53,29.69,29.53,17,2,17,1.65
2013-9-10,83.7,70.1,63.9,70.2,65.8,62.4,99,88,54,29.70,29.49,16,3,16,2.26
2013-9-11,79.7,68.3,65.1,70.0,66.3,64.8,99,94,63,29.71,29.50,17,3,17,0.05
2013-9-12,84.0,70.6,64.2,69.3,65.4,59.9,99,86,48,29.67,29.42,23,4,23,0.02
2013-9-13,85.3,70.5,66.2,70.9,65.5,60.8,99,86,45,29.60,29.36,23,4,23,1.11
2013-9-14,84.0,70.6,65.8,70.3,66.5,63.7,99,88,55,31.07,29.45,15,4,15,0.17
2013-9-15,82.4,71.4,65.7,70.2,66.5,63.5,99,86,59,29.75,29.34,18,6,18,0.41
2013-9-16,81.9,69.7,64.4,69.8,66.0,62.2,99,90,62,29.78,29.43,30,4,30,2.00
2013-9-17,82.2,70.4,63.0,69.4,65.1,60.4,99,85,54,29.64,29.42,19,5,21,0.00
2013-9-18,81.7,69.3,65.7,70.2,66.9,64.0,99,93,58,29.68,29.47,13,2,13,1.51
2013-9-19,79.2,70.2,64.9,69.1,66.6,64.0,99,89,64,29.69,29.50,17,5,17,0.04
2013-9-20,83.5,71.7,66.4,68.5,66.8,60.8,99,86,57,29.65,29.41,22,4,22,0.01
2013-9-21,83.5,72.3,66.7,71.2,68.5,64.0,99,89,54,29.60,29.30,20,4,20,0.01
2013-9-22,74.1,68.0,64.2,69.1,66.9,63.1,99,97,79,29.64,29.46,18,3,18,0.31
2013-9-23,82.4,71.9,64.4,69.6,66.1,62.2,99,84,56,29.64,29.44,19,5,19,0.00
2013-9-24,83.7,73.4,67.6,71.8,66.9,64.2,93,81,57,29.62,29.36,23,8,23,0.00
2013-9-25,79.7,71.0,67.8,67.1,63.5,55.8,94,78,44,29.61,29.42,30,8,30,0.00
2013-9-26,81.3,70.1,64.6,67.1,64.4,61.2,95,83,60,29.65,29.42,57,5,57,0.57
2013-9-27,81.1,70.7,63.9,66.2,63.1,59.7,98,78,53,29.66,29.40,22,6,22,0.00
2013-9-28,80.6,70.4,64.9,68.4,65.6,61.5,99,85,54,29.66,29.49,17,4,17,0.17
2013-9-29,83.5,70.7,65.7,68.4,66.0,63.3,99,86,54,29.65,29.40,21,5,21,0.14
2013-9-30,81.1,69.2,63.7,67.5,64.8,58.1,99,88,47,29.64,29.45,20,-15,20,1.10
2013-10-1,81.3,68.9,64.4,68.9,65.8,63.1,99,91,55,29.67,29.46,14,-106,14,0.56
2013-10-2,80.4,69.1,62.2,69.4,65.6,61.3,99,90,57,29.62,22.30,16,-139,16,1.12
2013-10-3,81.1,69.6,64.0,69.6,66.0,62.2,99,89,65,29.64,29.46,20,-86,20,0.01
2013-10-4,77.9,68.5,64.2,67.8,65.0,62.2,99,89,61,29.63,29.50,13,-113,13,0.14
2013-10-5,83.3,71.1,64.0,70.2,65.7,61.9,98,84,52,29.64,29.40,15,-79,15,0.37
2013-10-6,80.8,69.7,64.8,71.4,65.6,62.6,99,88,58,29.64,29.46,17,-143,17,0.69
2013-10-7,81.3,70.7,64.2,68.5,65.3,61.9,99,84,61,29.65,29.43,29,-52,29,0.14
2013-10-8,78.6,70.9,66.4,68.2,65.9,63.5,99,85,68,29.65,29.48,22,-4,22,0.00
2013-10-9,79.7,71.2,65.7,66.9,64.5,62.2,92,80,62,29.62,29.43,30,-2,30,0.00
2013-10-10,82.6,71.2,65.3,67.5,64.6,59.7,93,81,49,29.62,29.43,27,-24,27,0.26
2013-10-11,79.9,70.3,65.5,67.8,64.5,60.4,97,83,60,29.61,29.44,40,-87,40,0.39
2013-10-12,81.0,69.7,64.0,68.5,63.6,59.4,97,82,53,29.62,29.44,22,3,22,0.31
2013-10-13,75.9,68.2,63.3,66.7,62.9,60.1,93,83,68,29.64,29.46,23,-45,23,0.12
2013-10-14,81.0,70.2,61.7,67.6,63.1,56.8,98,80,44,29.62,29.39,18,-2,18,0.11
2013-10-15,79.5,69.4,64.6,68.7,66.4,63.5,99,91,68,29.64,29.45,21,-98,21,0.19
2013-10-16,81.0,68.9,64.0,68.7,65.2,63.0,99,89,58,29.65,29.42,18,-115,18,0.44
2013-10-17,81.0,70.1,61.5,68.0,64.9,61.0,98,85,65,29.65,29.41,18,-107,18,0.09
2013-10-18,82.8,70.4,64.6,69.8,64.9,62.4,98,84,55,29.61,29.42,17,-51,17,0.06
2013-10-19,79.7,69.1,64.0,68.9,64.6,61.3,99,87,57,29.61,29.39,22,-118,22,1.20
2013-10-20,82.4,69.5,61.9,69.4,65.0,60.6,99,87,54,29.59,29.39,18,-118,18,2.08
2013-10-21,81.7,69.4,63.5,67.6,65.2,62.6,99,88,54,29.62,29.44,25,-106,25,0.21
2013-10-22,80.1,69.2,63.5,68.2,64.9,61.7,99,87,56,29.60,29.42,22,-159,22,1.07
2013-10-23,81.7,69.2,64.0,69.6,65.1,59.9,99,88,50,29.58,29.39,15,-140,15,0.86
2013-10-24,77.4,69.6,64.4,68.7,66.5,63.1,99,91,65,29.60,29.45,18,-74,18,0.19
2013-10-25,81.5,70.7,66.0,68.0,66.0,63.7,99,86,59,29.60,29.38,22,-141,22,0.64
2013-10-26,81.9,69.0,64.0,68.2,65.7,63.1,99,91,56,29.60,29.41,19,-102,19,0.94
2013-10-27,80.4,70.5,64.2,69.3,66.1,63.1,99,87,62,29.58,29.38,15,-10,15,0.33
2013-10-28,78.3,69.8,65.7,70.0,66.7,64.4,99,90,69,29.59,29.41,18,-100,18,1.04
2013-10-29,79.9,70.7,63.3,69.3,65.4,61.3,96,84,64,29.60,29.41,21,-14,21,0.12
2013-10-30,79.5,71.0,65.3,68.7,65.6,61.9,99,84,63,29.59,29.39,21,-11,21,0.00
2013-10-31,81.5,70.8,64.4,70.0,65.0,62.1,99,83,56,29.59,29.36,23,-67,23,0.01
2013-11-1,81.0,69.8,62.1,68.9,63.9,59.4,97,83,55,29.59,28.78,26,-124,26,0.26
2013-11-2,79.7,69.1,61.3,66.7,64.1,60.8,99,85,62,29.61,29.40,20,-62,20,0.00
2013-11-3,77.7,69.1,63.1,66.9,64.3,60.1,99,85,58,29.70,29.37,18,-96,18,0.01
2013-11-4,80.8,70.0,63.3,68.9,63.0,59.9,95,80,52,29.59,29.38,23,-28,23,0.17
2013-11-5,82.2,70.4,63.5,67.3,63.1,59.0,94,79,50,29.57,29.36,22,-29,22,0.00
2013-11-6,83.3,71.6,65.3,68.4,65.6,59.0,99,82,47,29.54,22.30,20,-27,20,0.00
2013-11-7,81.9,71.6,64.4,69.6,65.4,63.3,99,82,56,29.53,22.66,36,-28,36,0.08
2013-11-8,81.0,69.8,63.1,68.2,65.3,61.3,99,87,54,29.72,29.31,21,-172,21,0.81
2013-11-9,80.6,69.1,63.7,70.3,65.5,62.8,99,89,58,29.72,28.65,122,-105,122,1.44
2013-11-10,76.3,68.7,64.2,67.5,64.9,9.9,97,88,69,29.66,29.40,25,-60,25,0.73
2013-11-11,74.7,68.9,65.3,67.1,64.6,62.1,93,86,75,29.67,29.41,23,10,23,0.73
2013-11-12,73.8,69.5,65.8,67.3,64.7,62.8,93,85,76,29.54,29.39,28,-66,28,0.08
2013-11-13,76.3,68.9,64.2,66.9,64.3,61.0,97,86,71,29.72,29.39,26,-50,26,0.11
2013-11-14,81.5,70.0,63.5,67.5,64.0,59.5,95,82,61,29.73,29.36,27,-8,27,0.21
2013-11-15,81.1,70.5,63.9,68.2,65.5,62.1,96,85,61,29.54,29.36,23,-13,23,0.09
2013-11-16,74.5,69.9,66.2,67.1,65.4,63.3,92,86,75,29.68,29.40,26,-28,26,0.00
2013-11-17,79.3,71.5,66.4,67.1,65.3,63.0,93,81,63,29.53,29.33,27,-2,27,0.00
2013-11-18,77.4,69.7,64.2,67.3,64.3,61.5,92,83,67,29.54,29.35,25,-32,25,0.00
2013-11-19,77.4,70.3,63.0,64.9,62.6,59.2,91,77,56,29.53,29.34,23,-27,23,0.00
2013-11-20,82.8,70.0,61.0,68.7,62.1,54.7,99,79,42,29.58,29.34,17,-56,17,0.51
2013-11-21,79.0,70.0,62.8,66.0,63.2,59.9,95,80,61,29.58,29.39,24,-24,24,0.01
2013-11-22,79.0,70.1,63.0,66.7,63.6,59.5,92,80,63,29.56,29.34,23,-10,23,0.00
2013-11-23,79.2,69.8,64.6,66.4,63.4,59.5,92,81,54,29.52,29.31,23,-9,23,0.00
2013-11-24,77.9,69.9,63.3,67.3,63.6,60.4,91,81,63,29.54,29.36,27,-6,27,0.01
2013-11-25,78.1,69.9,64.0,68.7,64.5,61.5,94,84,64,29.55,29.35,25,-78,25,0.00
2013-11-26,81.1,70.7,61.9,69.1,63.9,59.4,95,81,53,29.52,29.31,20,-44,20,0.00
2013-11-27,75.9,69.1,63.5,66.6,63.3,58.5,93,82,65,29.54,29.37,23,-24,23,0.01
2013-11-28,68.9,66.5,65.1,66.4,63.6,58.1,99,91,76,29.59,29.44,27,3,27,1.93
2013-11-29,74.1,68.4,64.9,64.9,62.1,58.8,89,80,69,29.58,29.43,27,-4,27,0.00
2013-11-30,72.9,68.0,65.1,63.9,61.7,58.3,90,80,67,29.57,27.62,116,-9,116,0.00
2013-12-1,75.6,68.2,63.9,64.2,60.9,55.9,89,78,54,29.57,29.41,24,-8,24,0.00
2013-12-2,84.0,68.8,60.1,66.4,59.9,2.1,95,76,33,29.56,28.77,149,-36,149,0.00
2013-12-3,79.5,69.0,63.0,68.5,63.0,58.8,93,82,55,29.60,29.40,16,-32,16,0.01
2013-12-4,77.2,69.2,64.0,64.4,62.1,57.6,94,79,64,29.58,29.40,29,8,29,0.00
2013-12-5,76.5,69.1,62.6,66.7,61.7,54.9,94,78,64,29.58,29.39,28,9,28,0.47
2013-12-6,78.1,70.6,65.5,67.1,64.3,57.6,89,81,65,29.55,29.37,27,10,27,0.21
2013-12-7,78.1,70.2,63.7,65.8,63.0,58.6,89,78,64,29.56,29.31,28,0,28,0.00
2013-12-8,74.8,68.2,63.9,64.0,61.9,59.5,90,81,67,29.56,29.41,32,-4,32,0.00
2013-12-9,78.6,68.9,62.2,64.4,61.2,58.1,90,77,54,29.56,29.35,23,-8,23,0.00
2013-12-10,80.4,69.5,59.7,64.6,59.3,53.2,89,72,42,29.59,29.33,24,-5,24,0.00
2013-12-11,77.4,70.1,63.1,66.7,63.4,58.6,89,80,65,29.55,29.35,27,3,27,0.01
2013-12-12,76.1,69.5,66.2,67.5,64.9,62.2,97,85,73,29.53,29.39,30,4,30,0.32
2013-12-13,76.5,69.3,65.1,64.6,62.3,58.5,91,79,59,29.51,29.30,31,13,31,0.00
2013-12-14,72.5,67.5,62.4,65.7,62.6,57.7,91,85,72,29.51,29.36,30,-86,30,0.00
2013-12-15,77.4,67.4,62.8,66.4,63.5,60.4,97,87,63,29.61,29.40,32,-65,32,0.52
2013-12-16,77.2,68.9,63.5,68.0,63.6,58.1,95,84,64,29.53,29.35,27,4,27,0.00
2013-12-17,74.7,67.7,63.5,65.8,62.5,59.2,90,83,73,29.55,29.37,28,-13,28,0.00
2013-12-18,71.4,66.9,63.0,64.6,61.1,57.0,94,82,74,29.58,26.84,56,-12,56,0.00
2013-12-19,73.4,67.3,61.0,64.4,61.0,57.0,88,81,69,29.55,29.37,30,-6,30,0.00
2013-12-20,77.0,68.2,63.0,64.0,61.5,57.9,91,79,62,29.54,29.31,31,12,31,0.00
2013-12-21,77.4,68.2,58.1,64.6,60.8,55.2,94,78,55,29.52,29.31,30,-50,30,0.00
2013-12-22,76.8,68.5,61.7,63.9,61.0,56.5,88,78,62,29.53,29.29,27,0,27,0.00
2013-12-23,76.1,68.3,61.3,63.0,60.1,57.2,89,76,60,29.54,29.34,33,2,33,0.00
2013-12-24,74.8,67.4,62.4,62.4,59.0,5.2,86,75,63,31.00,29.35,36,14,36,0.00
2013-12-25,76.5,66.9,57.7,62.1,57.7,52.3,88,73,49,29.57,29.32,29,-10,29,0.00
2013-12-26,75.0,67.3,60.8,63.5,60.0,55.6,89,78,60,29.57,22.67,28,8,28,0.00
2013-12-27,76.3,67.6,60.6,62.6,58.7,52.9,86,74,58,29.58,29.36,29,12,29,0.00
2013-12-28,79.9,69.1,61.0,64.8,59.9,53.1,86,74,51,29.57,29.31,30,12,30,0.00
2013-12-29,76.1,69.7,64.0,66.6,64.0,60.1,92,82,70,29.50,29.32,33,13,33,0.00
2013-12-30,75.7,68.8,65.3,66.2,62.2,58.8,88,80,68,29.51,29.34,35,15,35,0.00
2013-12-31,75.2,68.4,64.0,64.6,62.0,58.1,92,80,66,29.54,29.35,28,4,28,0.00
2014-1-1,72.9,68.2,65.5,64.4,62.7,60.6,93,83,71,29.50,29.37,1,-10,1,0.00
2014-1-2,73.6,67.4,64.8,64.9,63.5,56.8,96,88,75,29.65,29.34,16,-7,16,0.00